createdAt,value
2019-04-14T00:02:27.207Z,18.70
2019-04-14T00:05:04.056Z,18.52
2019-04-14T00:07:38.446Z,18.15
2019-04-14T00:10:13.818Z,18.37
2019-04-14T00:12:49.134Z,16.12
2019-04-14T00:15:30.906Z,19.85
2019-04-14T00:17:56.691Z,20.70
2019-04-14T00:20:29.421Z,19.20
2019-04-14T00:23:02.210Z,19.42
2019-04-14T00:25:36.995Z,19.35
2019-04-14T00:28:11.709Z,20.70
2019-04-14T00:30:47.323Z,21.73
2019-04-14T00:33:21.396Z,21.07
2019-04-14T00:36:00.129Z,22.22
2019-04-14T00:38:34.861Z,21.10
2019-04-14T00:41:11.611Z,23.52
2019-04-14T00:44:05.609Z,23.45
2019-04-14T00:46:45.346Z,23.95
2019-04-14T00:49:17.973Z,24.40
2019-04-14T00:51:50.771Z,25.05
2019-04-14T00:54:23.948Z,25.32
2019-04-14T00:56:56.709Z,26.40
2019-04-14T00:59:29.014Z,28.15
2019-04-14T01:02:01.467Z,24.70
2019-04-14T01:04:36.112Z,30.17
2019-04-14T01:07:08.702Z,26.12
2019-04-14T01:09:41.263Z,26.62
2019-04-14T01:12:14.828Z,21.27
2019-04-14T01:14:47.423Z,21.55
2019-04-14T01:17:20.490Z,21.75
2019-04-14T01:19:52.769Z,25.08
2019-04-14T01:22:25.599Z,21.23
2019-04-14T01:24:57.821Z,22.07
2019-04-14T01:27:30.446Z,20.23
2019-04-14T01:30:02.763Z,19.70
2019-04-14T01:32:39.294Z,20.80
2019-04-14T01:35:11.947Z,21.55
2019-04-14T01:37:44.691Z,22.22
2019-04-14T01:40:18.435Z,20.72
2019-04-14T01:42:51.108Z,20.92
2019-04-14T01:45:25.330Z,20.77
2019-04-14T01:47:59.502Z,21.65
2019-04-14T01:50:36.563Z,22.90
2019-04-14T01:53:16.547Z,22.07
2019-04-14T01:55:54.814Z,20.55
2019-04-14T01:58:33.893Z,20.60
2019-04-14T02:01:08.413Z,20.35
2019-04-14T02:03:43.253Z,18.05
2019-04-14T02:06:17.887Z,20.57
2019-04-14T02:08:54.589Z,18.73
2019-04-14T02:11:27.090Z,17.82
2019-04-14T02:13:59.830Z,18.27
2019-04-14T02:16:39.748Z,16.67
2019-04-14T02:19:06.729Z,16.87
2019-04-14T02:21:39.168Z,17.07
2019-04-14T02:24:11.560Z,17.73
2019-04-14T02:26:43.915Z,16.95
2019-04-14T02:29:16.820Z,17.37
2019-04-14T02:45:08.606Z,13.40
2019-04-14T02:47:56.357Z,14.45
2019-04-14T02:50:12.174Z,14.43
2019-04-14T02:55:15.607Z,13.13
2019-04-14T02:57:52.906Z,14.10
2019-04-14T03:00:41.222Z,16.02
2019-04-14T03:03:10.817Z,14.87
2019-04-14T03:05:44.736Z,16.42
2019-04-14T03:08:15.605Z,15.32
2019-04-14T03:10:50.945Z,16.23
2019-04-14T03:16:07.515Z,16.00
2019-04-14T03:24:09.396Z,17.42
2019-04-14T03:26:58.666Z,17.67
2019-04-14T03:29:29.519Z,14.25
2019-04-14T03:34:43.018Z,17.60
2019-04-14T03:42:29.415Z,19.05
2019-04-14T03:45:16.670Z,18.57
2019-04-14T03:47:27.805Z,18.37
2019-04-14T03:52:48.125Z,17.60
2019-04-14T03:55:09.407Z,18.32
2019-04-14T03:57:22.075Z,18.55
2019-04-14T03:59:54.494Z,18.00
2019-04-14T04:02:27.179Z,16.77
2019-04-14T04:05:02.110Z,17.12
2019-04-14T04:07:34.940Z,16.45
2019-04-14T04:10:09.363Z,19.48
2019-04-14T04:12:42.239Z,16.52
2019-04-14T04:17:49.448Z,16.80
2019-04-14T04:20:23.932Z,16.87
2019-04-14T04:23:07.360Z,14.00
2019-04-14T04:25:42.166Z,15.48
2019-04-14T04:28:19.078Z,16.90
2019-04-14T04:31:09.500Z,19.67
2019-04-14T04:33:43.681Z,18.52
2019-04-14T04:36:18.173Z,17.55
2019-04-14T04:38:57.387Z,15.83
2019-04-14T04:41:29.734Z,17.62
2019-04-14T04:44:02.852Z,18.67
2019-04-14T04:46:35.422Z,19.37
2019-04-14T04:49:15.090Z,19.48
2019-04-14T04:51:44.257Z,20.52
2019-04-14T04:54:16.927Z,18.82
2019-04-14T04:56:49.956Z,18.85
2019-04-14T04:59:23.360Z,17.45
2019-04-14T05:01:56.099Z,17.75
2019-04-14T05:04:28.699Z,18.57
2019-04-14T05:07:03.485Z,23.75
2019-04-14T05:09:53.521Z,20.90
2019-04-14T05:12:28.294Z,21.55
2019-04-14T05:15:09.428Z,22.13
2019-04-14T05:17:50.096Z,19.75
2019-04-14T05:20:22.637Z,18.35
2019-04-14T05:22:55.505Z,18.87
2019-04-14T05:25:28.220Z,19.45
2019-04-14T05:28:00.636Z,17.85
2019-04-14T05:30:33.089Z,18.10
2019-04-14T05:33:05.762Z,18.50
2019-04-14T05:38:10.530Z,19.27
2019-04-14T05:40:43.649Z,17.37
2019-04-14T05:45:50.035Z,17.62
2019-04-14T05:48:25.005Z,18.40
2019-04-14T05:50:57.907Z,17.87
2019-04-14T05:53:30.550Z,19.00
2019-04-14T05:58:36.148Z,16.50
2019-04-14T06:01:09.445Z,17.75
2019-04-14T06:03:43.138Z,17.70
2019-04-14T06:06:16.019Z,17.95
2019-04-14T06:08:48.259Z,16.27
2019-04-14T06:11:20.684Z,15.35
2019-04-14T06:13:52.855Z,14.07
2019-04-14T06:16:25.217Z,14.10
2019-04-14T06:18:57.706Z,14.95
2019-04-14T06:21:30.671Z,13.18
2019-04-14T06:24:03.379Z,14.15
2019-04-14T06:26:35.912Z,13.20
2019-04-14T06:29:08.525Z,12.18
2019-04-14T06:31:42.343Z,12.10
2019-04-14T06:34:25.325Z,11.70
2019-04-14T06:37:02.334Z,11.28
2019-04-14T06:39:39.383Z,11.33
2019-04-14T06:42:11.913Z,11.68
2019-04-14T06:44:44.219Z,12.40
2019-04-14T06:47:16.936Z,11.68
2019-04-14T06:49:49.500Z,9.90
2019-04-14T06:52:22.208Z,11.65
2019-04-14T06:54:54.693Z,6.12
2019-04-14T06:57:27.528Z,10.03
2019-04-14T07:00:00.527Z,8.68
2019-04-14T07:02:33.131Z,6.60
2019-04-14T07:05:07.954Z,6.28
2019-04-14T07:07:41.038Z,9.18
2019-04-14T07:10:13.937Z,12.73
2019-04-14T07:12:46.980Z,7.95
2019-04-14T07:15:19.334Z,10.35
2019-04-14T07:17:51.697Z,10.23
2019-04-14T07:20:23.938Z,4.45
2019-04-14T07:22:56.497Z,8.00
2019-04-14T07:25:28.642Z,11.53
2019-04-14T07:28:01.274Z,12.43
2019-04-14T07:30:53.273Z,6.75
2019-04-14T07:33:45.898Z,12.10
2019-04-14T07:36:35.491Z,10.72
2019-04-14T07:39:26.684Z,11.88
2019-04-14T07:42:15.523Z,12.28
2019-04-14T07:44:52.290Z,11.80
2019-04-14T07:47:28.644Z,12.35
2019-04-14T07:50:14.093Z,9.45
2019-04-14T07:52:40.934Z,10.95
2019-04-14T07:55:24.328Z,13.25
2019-04-14T07:58:16.671Z,13.95
2019-04-14T08:00:59.598Z,14.20
2019-04-14T08:03:39.857Z,14.13
2019-04-14T08:06:12.291Z,15.05
2019-04-14T08:08:54.831Z,14.75
2019-04-14T08:11:27.232Z,14.45
2019-04-14T08:14:00.158Z,13.43
2019-04-14T08:16:33.239Z,15.43
2019-04-14T08:19:05.973Z,15.55
2019-04-14T08:21:38.996Z,15.30
2019-04-14T08:24:12.009Z,16.07
2019-04-14T08:26:44.178Z,16.87
2019-04-14T08:29:19.822Z,15.90
2019-04-14T08:31:52.160Z,17.50
2019-04-14T08:34:24.915Z,17.07
2019-04-14T08:36:57.136Z,15.75
2019-04-14T08:39:30.953Z,16.27
2019-04-14T08:42:16.862Z,17.27
2019-04-14T08:44:50.983Z,16.00
2019-04-14T08:47:39.521Z,14.70
2019-04-14T08:50:13.575Z,15.58
2019-04-14T08:52:50.004Z,17.15
2019-04-14T08:55:32.982Z,15.45
2019-04-14T08:58:09.667Z,14.85
2019-04-14T09:00:43.657Z,15.43
2019-04-14T09:03:17.286Z,14.53
2019-04-14T09:06:09.737Z,15.75
2019-04-14T09:08:49.581Z,13.60
2019-04-14T09:11:33.295Z,14.45
2019-04-14T09:14:09.607Z,14.40
2019-04-14T09:16:49.643Z,14.15
2019-04-14T09:19:27.193Z,14.47
2019-04-14T09:21:59.979Z,15.85
2019-04-14T09:24:32.551Z,14.90
2019-04-14T09:29:37.088Z,15.48
2019-04-14T09:32:11.447Z,15.10
2019-04-14T09:34:45.209Z,15.50
2019-04-14T09:37:18.158Z,15.05
2019-04-14T09:39:50.380Z,16.32
2019-04-14T09:42:23.105Z,16.17
2019-04-14T09:44:55.355Z,16.12
2019-04-14T09:47:28.078Z,15.32
2019-04-14T09:50:01.706Z,16.95
2019-04-14T09:52:34.681Z,17.92
2019-04-14T09:55:07.930Z,17.20
2019-04-14T09:57:41.760Z,16.82
2019-04-14T10:00:15.999Z,14.33
2019-04-14T10:02:48.662Z,15.45
2019-04-14T10:05:20.884Z,16.00
2019-04-14T10:07:53.223Z,16.40
2019-04-14T10:10:25.552Z,17.60
2019-04-14T10:12:58.841Z,17.35
2019-04-14T10:18:03.896Z,16.97
2019-04-14T10:20:43.304Z,17.07
2019-04-14T10:23:27.650Z,17.82
2019-04-14T10:25:59.968Z,17.35
2019-04-14T10:28:32.450Z,16.95
2019-04-14T10:31:07.515Z,15.68
2019-04-14T10:33:40.576Z,17.35
2019-04-14T10:36:34.007Z,16.48
2019-04-14T10:41:39.584Z,17.05
2019-04-14T10:44:12.658Z,17.70
2019-04-14T10:46:44.932Z,18.50
2019-04-14T10:49:17.536Z,19.17
2019-04-14T10:51:50.401Z,19.17
2019-04-14T10:56:53.934Z,17.95
2019-04-14T10:59:27.318Z,18.40
2019-04-14T11:02:02.320Z,16.80
2019-04-14T11:04:36.231Z,15.20
2019-04-14T11:07:09.804Z,16.45
2019-04-14T11:09:47.921Z,16.00
2019-04-14T11:12:20.371Z,14.55
2019-04-14T11:14:53.130Z,14.70
2019-04-14T11:17:26.631Z,15.03
2019-04-14T11:20:00.024Z,15.18
2019-04-14T11:22:32.410Z,15.93
2019-04-14T11:25:04.897Z,15.18
2019-04-14T11:27:37.397Z,14.47
2019-04-14T11:32:54.943Z,12.75
2019-04-14T11:35:28.650Z,14.83
2019-04-14T11:38:19.097Z,14.33
2019-04-14T11:40:54.014Z,15.28
2019-04-14T11:43:27.211Z,15.35
2019-04-14T11:45:59.820Z,16.82
2019-04-14T11:48:33.797Z,14.38
2019-04-14T11:51:06.296Z,13.72
2019-04-14T11:53:39.456Z,13.25
2019-04-14T11:56:12.126Z,13.45
2019-04-14T11:58:44.478Z,16.00
2019-04-14T12:01:24.421Z,15.90
2019-04-14T12:04:07.254Z,16.35
2019-04-14T12:06:49.694Z,17.82
2019-04-14T12:09:23.733Z,19.07
2019-04-14T12:11:56.443Z,20.30
2019-04-14T12:14:29.291Z,19.45
2019-04-14T12:17:03.586Z,21.45
2019-04-14T12:19:37.055Z,21.00
2019-04-14T12:22:11.255Z,18.87
2019-04-14T12:24:44.134Z,18.62
2019-04-14T12:29:48.309Z,17.32
2019-04-14T12:32:21.727Z,17.57
2019-04-14T12:34:54.462Z,17.50
2019-04-14T12:39:58.343Z,17.40
2019-04-14T12:42:34.115Z,17.42
2019-04-14T12:45:11.980Z,17.07
2019-04-14T12:47:51.768Z,17.92
2019-04-14T12:50:34.905Z,18.77
2019-04-14T12:55:38.376Z,17.70
2019-04-14T12:58:12.243Z,15.75
2019-04-14T13:00:55.679Z,16.87
2019-04-14T13:03:28.755Z,17.48
2019-04-14T13:06:01.388Z,17.40
2019-04-14T13:08:34.109Z,16.73
2019-04-14T13:11:06.999Z,17.27
2019-04-14T13:13:39.916Z,17.73
2019-04-14T13:16:12.680Z,15.80
2019-04-14T13:18:45.871Z,13.45
2019-04-14T13:23:49.221Z,10.48
2019-04-14T13:26:21.867Z,12.43
2019-04-14T13:31:25.535Z,10.10
2019-04-14T13:33:58.124Z,9.93
2019-04-14T13:36:30.461Z,10.50
2019-04-14T13:39:03.759Z,11.33
2019-04-14T13:41:37.604Z,11.18
2019-04-14T13:46:43.079Z,10.93
2019-04-14T13:49:15.930Z,10.25
2019-04-14T13:51:49.784Z,11.25
2019-04-14T13:54:22.606Z,10.45
2019-04-14T13:56:55.410Z,11.93
2019-04-14T13:59:27.619Z,12.00
2019-04-14T14:02:01.080Z,11.97
2019-04-14T14:04:33.289Z,11.78
2019-04-14T14:07:07.469Z,11.48
2019-04-14T14:09:41.147Z,11.78
2019-04-14T14:12:16.834Z,11.20
2019-04-14T14:15:08.719Z,11.68
2019-04-14T14:17:49.874Z,14.85
2019-04-14T14:20:31.598Z,11.93
2019-04-14T14:23:20.412Z,11.78
2019-04-14T14:26:04.264Z,11.18
2019-04-14T14:28:38.653Z,11.45
2019-04-14T14:31:10.356Z,12.28
2019-04-14T14:33:45.227Z,11.20
2019-04-14T14:36:17.272Z,12.23
2019-04-14T14:41:21.241Z,11.38
2019-04-14T14:43:54.189Z,11.88
2019-04-14T14:46:37.148Z,11.35
2019-04-14T14:49:11.091Z,12.03
2019-04-14T14:51:57.010Z,11.90
2019-04-14T14:54:32.624Z,11.60
2019-04-14T14:57:05.006Z,12.35
2019-04-14T14:59:37.844Z,11.50
2019-04-14T15:02:10.179Z,11.60
2019-04-14T15:04:42.660Z,11.53
2019-04-14T15:07:15.629Z,12.00
2019-04-14T15:09:48.124Z,12.33
2019-04-14T15:12:20.752Z,12.65
2019-04-14T15:17:26.681Z,12.50
2019-04-14T15:19:59.228Z,12.82
2019-04-14T15:22:31.628Z,12.00
2019-04-14T15:25:05.337Z,12.05
2019-04-14T15:27:37.912Z,12.23
2019-04-14T15:30:11.923Z,12.07
2019-04-14T15:32:44.883Z,11.28
2019-04-14T15:37:48.590Z,11.40
2019-04-14T15:40:22.049Z,12.25
2019-04-14T15:42:54.707Z,12.30
2019-04-14T15:45:27.327Z,12.20
2019-04-14T15:47:59.516Z,13.62
2019-04-14T15:50:32.035Z,12.23
2019-04-14T15:53:04.266Z,12.60
2019-04-14T15:55:36.717Z,12.95
2019-04-14T15:58:22.602Z,13.05
2019-04-14T16:01:09.851Z,12.98
2019-04-14T16:03:52.515Z,14.03
2019-04-14T16:06:42.900Z,13.88
2019-04-14T16:09:16.539Z,13.53
2019-04-14T16:11:50.780Z,13.55
2019-04-14T16:14:24.634Z,12.88
2019-04-14T16:17:15.665Z,13.18
2019-04-14T16:20:07.799Z,13.68
2019-04-14T16:22:41.213Z,12.85
2019-04-14T16:25:13.671Z,13.00
2019-04-14T16:27:56.808Z,12.70
2019-04-14T16:30:30.483Z,12.90
2019-04-14T16:33:07.599Z,12.28
2019-04-14T16:35:41.033Z,13.50
2019-04-14T16:38:13.508Z,13.48
2019-04-14T16:40:46.103Z,12.78
2019-04-14T16:43:18.744Z,12.58
2019-04-14T16:45:51.582Z,12.58
2019-04-14T16:48:24.481Z,12.45
2019-04-14T16:51:01.634Z,12.23
2019-04-14T16:53:35.420Z,12.60
2019-04-14T16:56:27.580Z,13.38
2019-04-14T16:59:01.568Z,12.58
2019-04-14T17:01:36.562Z,12.80
2019-04-14T17:04:10.497Z,13.05
2019-04-14T17:06:42.837Z,13.68
2019-04-14T17:09:15.607Z,13.35
2019-04-14T17:11:48.454Z,12.78
2019-04-14T17:14:22.554Z,13.18
2019-04-14T17:16:56.190Z,10.98
2019-04-14T17:19:36.460Z,13.13
2019-04-14T17:22:22.399Z,13.53
2019-04-14T17:25:03.381Z,13.38
2019-04-14T17:27:38.603Z,13.38
2019-04-14T17:30:16.701Z,13.45
2019-04-14T17:33:02.714Z,13.70
2019-04-14T17:35:42.406Z,15.05
2019-04-14T17:38:16.418Z,16.40
2019-04-14T17:41:05.236Z,16.10
2019-04-14T17:43:45.635Z,16.93
2019-04-14T17:46:37.010Z,18.70
2019-04-14T17:49:14.253Z,20.20
2019-04-14T17:51:54.294Z,19.23
2019-04-14T17:54:37.775Z,21.35
2019-04-14T17:59:47.916Z,22.27
2019-04-14T18:02:22.907Z,19.17
2019-04-14T18:05:02.840Z,22.80
2019-04-14T18:07:37.057Z,20.10
2019-04-14T18:10:19.990Z,21.07
2019-04-14T18:13:05.359Z,18.80
2019-04-14T18:15:55.268Z,20.15
2019-04-14T18:18:40.984Z,22.02
2019-04-14T18:21:13.626Z,20.88
2019-04-14T18:23:46.045Z,22.77
2019-04-14T18:26:19.600Z,20.57
2019-04-14T18:28:53.169Z,19.62
2019-04-14T18:31:26.901Z,22.75
2019-04-14T18:34:00.632Z,22.98
2019-04-14T18:36:34.630Z,23.07
2019-04-14T18:39:22.468Z,22.42
2019-04-14T18:41:59.637Z,23.10
2019-04-14T18:44:45.200Z,24.15
2019-04-14T18:47:22.259Z,23.77
2019-04-14T18:50:05.254Z,23.47
2019-04-14T18:52:55.958Z,22.37
2019-04-14T18:55:44.905Z,21.62
2019-04-14T18:58:19.595Z,20.40
2019-04-14T19:00:56.399Z,20.70
2019-04-14T19:03:29.088Z,19.77
2019-04-14T19:06:01.382Z,17.82
2019-04-14T19:08:33.856Z,16.40
2019-04-14T19:11:16.656Z,16.80
2019-04-14T19:16:39.732Z,17.32
2019-04-14T19:19:10.704Z,16.52
2019-04-14T19:21:43.002Z,19.27
2019-04-14T19:24:15.669Z,17.65
2019-04-14T19:26:48.434Z,17.02
2019-04-14T19:29:20.844Z,18.50
2019-04-14T19:31:53.311Z,18.25
2019-04-14T19:34:27.631Z,19.52
2019-04-14T19:36:59.960Z,20.02
2019-04-14T19:39:32.725Z,18.62
2019-04-14T19:42:04.946Z,20.37
2019-04-14T19:44:39.084Z,24.65
2019-04-14T19:47:11.949Z,24.98
2019-04-14T19:49:44.834Z,27.00
2019-04-14T19:52:20.057Z,27.40
2019-04-14T19:54:52.277Z,27.25
2019-04-14T19:57:24.756Z,27.07
2019-04-14T19:59:56.953Z,26.90
2019-04-14T20:02:29.439Z,26.37
2019-04-14T20:05:01.740Z,24.92
2019-04-14T20:07:40.944Z,25.15
2019-04-14T20:10:14.068Z,23.77
2019-04-14T20:12:46.703Z,23.02
2019-04-14T20:15:29.535Z,22.07
2019-04-14T20:18:10.053Z,24.98
2019-04-14T20:20:55.749Z,26.23
2019-04-14T20:23:29.751Z,31.70
2019-04-14T20:26:19.739Z,33.53
2019-04-14T20:28:53.451Z,31.95
2019-04-14T20:31:39.347Z,29.25
2019-04-14T20:34:12.759Z,26.17
2019-04-14T20:39:16.881Z,27.25
2019-04-14T20:41:49.218Z,24.65
2019-04-14T20:44:22.184Z,24.15
2019-04-14T20:46:54.410Z,24.92
2019-04-14T20:49:26.811Z,25.37
2019-04-14T20:51:59.033Z,23.20
2019-04-14T20:54:31.770Z,23.55
2019-04-14T20:57:04.167Z,21.87
2019-04-14T20:59:36.608Z,22.40
2019-04-14T21:02:16.224Z,24.92
2019-04-14T21:04:56.392Z,19.87
2019-04-14T21:07:45.058Z,20.95
2019-04-14T21:10:25.064Z,21.33
2019-04-14T21:13:01.674Z,22.13
2019-04-14T21:15:38.906Z,17.98
2019-04-14T21:18:17.227Z,14.45
2019-04-14T21:20:51.163Z,15.10
2019-04-14T21:23:31.412Z,13.85
2019-04-14T21:26:11.823Z,12.35
2019-04-14T21:28:51.601Z,12.37
2019-04-14T21:31:28.426Z,12.53
2019-04-14T21:34:18.466Z,11.20
2019-04-14T21:37:09.067Z,10.65
2019-04-14T21:39:45.894Z,11.68
2019-04-14T21:42:19.096Z,10.88
2019-04-14T21:44:51.311Z,12.78
2019-04-14T21:47:24.091Z,11.18
2019-04-14T21:49:57.207Z,9.70
2019-04-14T21:52:31.491Z,10.00
2019-04-14T21:55:03.972Z,10.58
2019-04-14T21:57:44.584Z,10.93
2019-04-14T22:00:19.383Z,11.00
2019-04-14T22:03:11.026Z,11.40
2019-04-14T22:06:03.617Z,11.85
2019-04-14T22:11:18.154Z,11.97
2019-04-14T22:13:51.510Z,12.43
2019-04-14T22:16:24.044Z,12.78
2019-04-14T22:18:56.469Z,13.72
2019-04-14T22:21:29.173Z,12.75
2019-04-14T22:24:02.332Z,13.30
2019-04-14T22:26:35.629Z,10.60
2019-04-14T22:29:07.957Z,11.18
2019-04-14T22:31:40.412Z,12.53
2019-04-14T22:34:12.657Z,14.85
2019-04-14T22:36:45.423Z,14.38
2019-04-14T22:39:18.938Z,16.82
2019-04-14T22:41:51.679Z,15.85
2019-04-14T22:44:24.049Z,15.15
2019-04-14T22:46:56.986Z,12.73
2019-04-14T22:49:30.365Z,7.90
2019-04-14T22:52:03.253Z,10.38
2019-04-14T22:54:36.004Z,7.25
2019-04-14T22:57:08.359Z,14.35
2019-04-14T22:59:41.311Z,11.10
2019-04-14T23:02:18.678Z,10.50
2019-04-14T23:05:02.084Z,9.40
2019-04-14T23:07:35.929Z,6.25
2019-04-14T23:10:13.107Z,6.00
2019-04-14T23:12:46.903Z,5.20
2019-04-14T23:15:23.556Z,6.80
2019-04-14T23:18:13.436Z,6.83
2019-04-14T23:20:50.001Z,7.62
2019-04-14T23:23:33.558Z,8.50
2019-04-14T23:26:06.393Z,11.63
2019-04-14T23:28:38.655Z,12.33
2019-04-14T23:31:10.845Z,10.73
2019-04-14T23:33:43.140Z,11.18
2019-04-14T23:36:15.899Z,12.90
2019-04-14T23:38:48.453Z,13.20
2019-04-14T23:41:21.215Z,15.60
2019-04-14T23:43:53.837Z,15.85
2019-04-14T23:46:26.171Z,17.92
2019-04-14T23:48:58.840Z,16.77
2019-04-14T23:51:31.354Z,18.52
2019-04-14T23:54:05.777Z,17.62
2019-04-14T23:59:09.904Z,20.12
